Pelagia — PGRQ — position and weather

sailwx.info

Track history (hours):
 
Tides and Currents Weather Stations Pressure Air Temp Water Temp Dewpoint Dewpoint Depression Visibility Wind Speed Wind Dir Waves Ship Positions

Oceanographic research ship Pelagia (Netherlands)

Detailed information on ship capabilities available from University of Delaware's Ocean Information Center and ARCUS's ALIAS (Arctic Logistics Information and Support) project.

Last reported at 2016-Jun-27 23:17 UTC. Time now 2016-Jun-30 14:06 UTC.
Position N 37°29' W 031°02'.

Length 66 m; beam 13 m.

Type: Other ship. MMSI: 244925000.

Date/timePositionNaut miles runAvg speedWind from/ knotsBaromVisibWave heightAir tempDewpointWater temp
2016-Jun-27 23:17N 37°29' W 031°02'10 9.7
2016-Jun-27 22:14N 37°34' W 030°51'7 9.9
2016-Jun-27 21:33N 37°37' W 030°44'10 9.6
2016-Jun-27 20:33N 37°43' W 030°34'9 9.1
2016-Jun-27 19:33N 37°47' W 030°24'9 9.0
2016-Jun-27 18:33N 37°51' W 030°14'9 9.2
2016-Jun-27 17:34N 37°55' W 030°03'9 9.3
2016-Jun-27 16:33N 37°59' W 029°52'9 9.4
2016-Jun-27 15:33N 38°03' W 029°42'9 9.3
2016-Jun-27 14:33N 38°08' W 029°31'9 9.4
2016-Jun-27 13:34N 38°12' W 029°21'9 9.4
2016-Jun-27 12:33N 38°17' W 029°11'10 9.9
2016-Jun-27 11:33N 38°21' W 028°60'10 9.6
2016-Jun-27 10:33N 38°26' W 028°49'10 9.7
2016-Jun-27 09:33N 38°30' W 028°38'2 2.0
2016-Jun-27 08:33N 38°32' W 028°37'0 0.0
2016-Jun-27 07:33N 38°32' W 028°37'0 0.0
2016-Jun-27 06:33N 38°32' W 028°37'0 0.0
2016-Jun-27 05:33N 38°32' W 028°37'0 0.0
2016-Jun-27 04:30N 38°32' W 028°37'0 0.0
2016-Jun-27 03:33N 38°32' W 028°37'0 0.0
2016-Jun-27 02:33N 38°32' W 028°37'0 0.0
2016-Jun-27 01:33N 38°32' W 028°37'0 0.0
2016-Jun-27 00:33N 38°32' W 028°37'0 0.0
2016-Jun-26 23:33N 38°32' W 028°37'0 0.0
2016-Jun-26 22:33N 38°32' W 028°37'0 0.0
2016-Jun-26 21:33N 38°32' W 028°37'0 0.0
2016-Jun-26 20:33N 38°32' W 028°37'0 0.0
2016-Jun-26 19:33N 38°32' W 028°37'0 0.0
2016-Jun-26 18:33N 38°32' W 028°37'0 0.0
2016-Jun-26 17:33N 38°32' W 028°37'0 0.0
2016-Jun-26 16:33N 38°32' W 028°37'0 0.0
2016-Jun-26 15:33N 38°32' W 028°37'0 0.0
2016-Jun-26 14:33N 38°32' W 028°37'0 0.0
2016-Jun-26 13:32N 38°32' W 028°37'0 0.0
2016-Jun-26 12:29N 38°32' W 028°37'0 0.0
2016-Jun-26 11:32N 38°32' W 028°37'0 0.0
2016-Jun-26 10:32N 38°32' W 028°37'0 0.0
2016-Jun-26 09:29N 38°32' W 028°37'0 0.0
2016-Jun-26 08:32N 38°32' W 028°37'0 0.0
2016-Jun-26 07:32N 38°32' W 028°37'0 0.0
2016-Jun-26 06:32N 38°32' W 028°37'0 0.0
2016-Jun-26 05:32N 38°32' W 028°37'0 0.0
2016-Jun-26 04:32N 38°32' W 028°37'0 0.0
2016-Jun-26 03:32N 38°32' W 028°37'0 0.0
2016-Jun-26 02:32N 38°32' W 028°37'0 0.0
2016-Jun-26 01:29N 38°32' W 028°37'0 0.0
2016-Jun-26 00:32N 38°32' W 028°37'0 0.0
2016-Jun-25 23:32N 38°32' W 028°37'0 0.0
2016-Jun-25 22:32N 38°32' W 028°37'0 0.0
2016-Jun-25 21:32N 38°32' W 028°37'0 0.0
2016-Jun-25 20:32N 38°32' W 028°37'0 0.0
2016-Jun-25 19:32N 38°32' W 028°37'0 0.0
2016-Jun-25 18:32N 38°32' W 028°37'0 0.0
2016-Jun-25 17:32N 38°32' W 028°37'0 0.0
2016-Jun-25 16:32N 38°32' W 028°37'0 0.0
2016-Jun-25 15:29N 38°32' W 028°37'0 0.0
2016-Jun-25 14:32N 38°32' W 028°37'0 0.0
2016-Jun-25 13:33N 38°32' W 028°37'3 3.0
2016-Jun-25 12:33N 38°35' W 028°35'7 6.7
2016-Jun-25 11:34N 38°41' W 028°31'7 6.5
2016-Jun-25 10:33N 38°46' W 028°26'7 6.6
2016-Jun-25 09:33N 38°50' W 028°20'8 7.7
2016-Jun-25 08:33N 38°53' W 028°11'1110.7
2016-Jun-25 07:34N 38°58' W 027°59'1110.9
2016-Jun-25 06:33N 39°04' W 027°47'1111.2
2016-Jun-25 05:33N 39°10' W 027°34'1110.8
2016-Jun-25 04:32N 39°16' W 027°22'  
2016-Jun-20 06:32N 49°46' W 003°38'4 4.4
2016-Jun-20 05:33N 49°48' W 003°32'5 4.7
2016-Jun-20 04:33N 49°50' W 003°26'4 4.4
2016-Jun-20 03:33N 49°52' W 003°19'7 7.5
2016-Jun-20 02:33N 49°56' W 003°09'10 9.6
2016-Jun-20 01:34N 49°59' W 002°55'92 8.9
2016-Jun-19 15:10N 50°24' W 000°37'711.8
2016-Jun-19 14:34N 50°26' W 000°26'1111.4
2016-Jun-19 13:34N 50°30' W 000°09'1110.9
2016-Jun-19 12:33N 50°33' E 000°07'39 9.5
2016-Jun-19 08:31N 50°51' E 001°01'1010.3
2016-Jun-19 07:34N 50°57' E 001°13'1212.0
2016-Jun-19 06:33N 51°05' E 001°28'1312.8
2016-Jun-19 05:34N 51°13' E 001°43'1111.3
2016-Jun-19 04:33N 51°23' E 001°52'10 9.9
2016-Jun-19 03:33N 51°31' E 002°01'9 9.3
2016-Jun-19 02:33N 51°38' E 002°11'49 9.3
2016-Jun-18 21:18N 52°14' E 003°05'57 9.9
2016-Jun-18 15:33N 52°46' E 004°22'8 8.5
2016-Jun-18 14:33N 52°51' E 004°33'9 8.0
2016-Jun-18 13:25N 52°58' E 004°43'4 0.3
2016-Jun-18 00:09N 53°00' E 004°48'  
Track history (hours):
 
Tides and Currents Weather Stations Pressure Air Temp Water Temp Dewpoint Dewpoint Depression Visibility Wind Speed Wind Dir Waves Ship Positions

Oceanographic research ship Pelagia (Netherlands)

Detailed information on ship capabilities available from University of Delaware's Ocean Information Center and ARCUS's ALIAS (Arctic Logistics Information and Support) project.

Last reported at 2016-Jun-27 23:17 UTC. Time now 2016-Jun-30 14:06 UTC.
Position N 37°29' W 031°02'.

Length 66 m; beam 13 m.

Type: Other ship. MMSI: 244925000.

Date/timePositionNaut miles runAvg speedWind from/ knotsBaromVisibWave heightAir tempDewpointWater temp
2016-Jun-27 23:17N 37°29' W 031°02'10 9.7
2016-Jun-27 22:14N 37°34' W 030°51'7 9.9
2016-Jun-27 21:33N 37°37' W 030°44'10 9.6
2016-Jun-27 20:33N 37°43' W 030°34'9 9.1
2016-Jun-27 19:33N 37°47' W 030°24'9 9.0
2016-Jun-27 18:33N 37°51' W 030°14'9 9.2
2016-Jun-27 17:34N 37°55' W 030°03'9 9.3
2016-Jun-27 16:33N 37°59' W 029°52'9 9.4
2016-Jun-27 15:33N 38°03' W 029°42'9 9.3
2016-Jun-27 14:33N 38°08' W 029°31'9 9.4
2016-Jun-27 13:34N 38°12' W 029°21'9 9.4
2016-Jun-27 12:33N 38°17' W 029°11'10 9.9
2016-Jun-27 11:33N 38°21' W 028°60'10 9.6
2016-Jun-27 10:33N 38°26' W 028°49'10 9.7
2016-Jun-27 09:33N 38°30' W 028°38'2 2.0
2016-Jun-27 08:33N 38°32' W 028°37'0 0.0
2016-Jun-27 07:33N 38°32' W 028°37'0 0.0
2016-Jun-27 06:33N 38°32' W 028°37'0 0.0
2016-Jun-27 05:33N 38°32' W 028°37'0 0.0
2016-Jun-27 04:30N 38°32' W 028°37'0 0.0
2016-Jun-27 03:33N 38°32' W 028°37'0 0.0
2016-Jun-27 02:33N 38°32' W 028°37'0 0.0
2016-Jun-27 01:33N 38°32' W 028°37'0 0.0
2016-Jun-27 00:33N 38°32' W 028°37'0 0.0
2016-Jun-26 23:33N 38°32' W 028°37'0 0.0
2016-Jun-26 22:33N 38°32' W 028°37'0 0.0
2016-Jun-26 21:33N 38°32' W 028°37'0 0.0
2016-Jun-26 20:33N 38°32' W 028°37'0 0.0
2016-Jun-26 19:33N 38°32' W 028°37'0 0.0
2016-Jun-26 18:33N 38°32' W 028°37'0 0.0
2016-Jun-26 17:33N 38°32' W 028°37'0 0.0
2016-Jun-26 16:33N 38°32' W 028°37'0 0.0
2016-Jun-26 15:33N 38°32' W 028°37'0 0.0
2016-Jun-26 14:33N 38°32' W 028°37'0 0.0
2016-Jun-26 13:32N 38°32' W 028°37'0 0.0
2016-Jun-26 12:29N 38°32' W 028°37'0 0.0
2016-Jun-26 11:32N 38°32' W 028°37'0 0.0
2016-Jun-26 10:32N 38°32' W 028°37'0 0.0
2016-Jun-26 09:29N 38°32' W 028°37'0 0.0
2016-Jun-26 08:32N 38°32' W 028°37'0 0.0
2016-Jun-26 07:32N 38°32' W 028°37'0 0.0
2016-Jun-26 06:32N 38°32' W 028°37'0 0.0
2016-Jun-26 05:32N 38°32' W 028°37'0 0.0
2016-Jun-26 04:32N 38°32' W 028°37'0 0.0
2016-Jun-26 03:32N 38°32' W 028°37'0 0.0
2016-Jun-26 02:32N 38°32' W 028°37'0 0.0
2016-Jun-26 01:29N 38°32' W 028°37'0 0.0
2016-Jun-26 00:32N 38°32' W 028°37'0 0.0
2016-Jun-25 23:32N 38°32' W 028°37'0 0.0
2016-Jun-25 22:32N 38°32' W 028°37'0 0.0
2016-Jun-25 21:32N 38°32' W 028°37'0 0.0
2016-Jun-25 20:32N 38°32' W 028°37'0 0.0
2016-Jun-25 19:32N 38°32' W 028°37'0 0.0
2016-Jun-25 18:32N 38°32' W 028°37'0 0.0
2016-Jun-25 17:32N 38°32' W 028°37'0 0.0
2016-Jun-25 16:32N 38°32' W 028°37'0 0.0
2016-Jun-25 15:29N 38°32' W 028°37'0 0.0
2016-Jun-25 14:32N 38°32' W 028°37'0 0.0
2016-Jun-25 13:33N 38°32' W 028°37'3 3.0
2016-Jun-25 12:33N 38°35' W 028°35'7 6.7
2016-Jun-25 11:34N 38°41' W 028°31'7 6.5
2016-Jun-25 10:33N 38°46' W 028°26'7 6.6
2016-Jun-25 09:33N 38°50' W 028°20'8 7.7
2016-Jun-25 08:33N 38°53' W 028°11'1110.7
2016-Jun-25 07:34N 38°58' W 027°59'1110.9
2016-Jun-25 06:33N 39°04' W 027°47'1111.2
2016-Jun-25 05:33N 39°10' W 027°34'1110.8
2016-Jun-25 04:32N 39°16' W 027°22'  
2016-Jun-20 06:32N 49°46' W 003°38'4 4.4
2016-Jun-20 05:33N 49°48' W 003°32'5 4.7
2016-Jun-20 04:33N 49°50' W 003°26'4 4.4
2016-Jun-20 03:33N 49°52' W 003°19'7 7.5
2016-Jun-20 02:33N 49°56' W 003°09'10 9.6
2016-Jun-20 01:34N 49°59' W 002°55'92 8.9
2016-Jun-19 15:10N 50°24' W 000°37'711.8
2016-Jun-19 14:34N 50°26' W 000°26'1111.4
2016-Jun-19 13:34N 50°30' W 000°09'1110.9
2016-Jun-19 12:33N 50°33' E 000°07'39 9.5
2016-Jun-19 08:31N 50°51' E 001°01'1010.3
2016-Jun-19 07:34N 50°57' E 001°13'1212.0
2016-Jun-19 06:33N 51°05' E 001°28'1312.8
2016-Jun-19 05:34N 51°13' E 001°43'1111.3
2016-Jun-19 04:33N 51°23' E 001°52'10 9.9
2016-Jun-19 03:33N 51°31' E 002°01'9 9.3
2016-Jun-19 02:33N 51°38' E 002°11'49 9.3
2016-Jun-18 21:18N 52°14' E 003°05'57 9.9
2016-Jun-18 15:33N 52°46' E 004°22'8 8.5
2016-Jun-18 14:33N 52°51' E 004°33'9 8.0
2016-Jun-18 13:25N 52°58' E 004°43'4 0.3
2016-Jun-18 00:09N 53°00' E 004°48'  

Dump ship's entire track history